sensor_id;sensor_type;location;lat;lon;timestamp;pressure;altitude;pressure_sealevel;temperature;humidity
55263;BME280;41125;48.752;9.168;2022-11-15T00:00:29;96694.53;;;8.46;75.41
55263;BME280;41125;48.752;9.168;2022-11-15T00:01:01;96693.22;;;8.44;75.59
55263;BME280;41125;48.752;9.168;2022-11-15T00:01:32;96694.00;;;8.44;75.83
55263;BME280;41125;48.752;9.168;2022-11-15T00:02:03;96690.78;;;8.42;75.89
55263;BME280;41125;48.752;9.168;2022-11-15T00:02:35;96696.19;;;8.42;75.80
55263;BME280;41125;48.752;9.168;2022-11-15T00:03:07;96690.25;;;8.40;76.03
55263;BME280;41125;48.752;9.168;2022-11-15T00:03:38;96690.25;;;8.40;76.19
55263;BME280;41125;48.752;9.168;2022-11-15T00:04:10;96692.41;;;8.43;75.70
55263;BME280;41125;48.752;9.168;2022-11-15T00:04:41;96694.00;;;8.44;75.76
55263;BME280;41125;48.752;9.168;2022-11-15T00:05:13;96687.00;;;8.43;75.62
55263;BME280;41125;48.752;9.168;2022-11-15T00:05:44;96693.50;;;8.42;75.59
55263;BME280;41125;48.752;9.168;2022-11-15T00:06:16;96686.47;;;8.41;76.07
55263;BME280;41125;48.752;9.168;2022-11-15T00:06:47;96698.38;;;8.40;75.87
55263;BME280;41125;48.752;9.168;2022-11-15T00:07:18;96689.72;;;8.38;75.87
55263;BME280;41125;48.752;9.168;2022-11-15T00:07:50;96684.31;;;8.38;75.94
55263;BME280;41125;48.752;9.168;2022-11-15T00:08:21;96684.31;;;8.38;76.40
55263;BME280;41125;48.752;9.168;2022-11-15T00:08:52;96684.31;;;8.38;76.23
55263;BME280;41125;48.752;9.168;2022-11-15T00:09:23;96684.31;;;8.38;76.01
55263;BME280;41125;48.752;9.168;2022-11-15T00:09:55;96690.78;;;8.42;76.11
55263;BME280;41125;48.752;9.168;2022-11-15T00:10:27;96687.00;;;8.43;76.20
55263;BME280;41125;48.752;9.168;2022-11-15T00:11:00;96687.78;;;8.44;76.03
55263;BME280;41125;48.752;9.168;2022-11-15T00:11:32;96690.22;;;8.45;76.21
55263;BME280;41125;48.752;9.168;2022-11-15T00:12:04;96688.31;;;8.46;76.21
55263;BME280;41125;48.752;9.168;2022-11-15T00:12:35;96682.62;;;8.47;75.96
55263;BME280;41125;48.752;9.168;2022-11-15T00:13:13;96693.44;;;8.47;75.74
55263;BME280;41125;48.752;9.168;2022-11-15T00:13:44;96688.03;;;8.47;76.23
55263;BME280;41125;48.752;9.168;2022-11-15T00:14:15;96684.25;;;8.48;75.94
55263;BME280;41125;48.752;9.168;2022-11-15T00:14:46;96689.09;;;8.51;75.63
55263;BME280;41125;48.752;9.168;2022-11-15T00:15:18;96685.28;;;8.52;75.64
55263;BME280;41125;48.752;9.168;2022-11-15T00:15:49;96684.72;;;8.55;75.34
55263;BME280;41125;48.752;9.168;2022-11-15T00:16:20;96692.81;;;8.60;74.49
55263;BME280;41125;48.752;9.168;2022-11-15T00:16:51;96690.63;;;8.62;74.81
55263;BME280;41125;48.752;9.168;2022-11-15T00:17:23;96688.44;;;8.64;74.78
55263;BME280;41125;48.752;9.168;2022-11-15T00:17:54;96690.06;;;8.65;74.25
55263;BME280;41125;48.752;9.168;2022-11-15T00:18:26;96685.44;;;8.66;74.37
55263;BME280;41125;48.752;9.168;2022-11-15T00:18:57;96688.38;;;8.69;74.62
55263;BME280;41125;48.752;9.168;2022-11-15T00:19:29;96681.25;;;8.79;73.56
55263;BME280;41125;48.752;9.168;2022-11-15T00:20:00;96681.75;;;8.81;73.19
55263;BME280;41125;48.752;9.168;2022-11-15T00:20:34;96681.19;;;8.84;73.00
55263;BME280;41125;48.752;9.168;2022-11-15T00:21:07;96677.69;;;8.83;72.65
55263;BME280;41125;48.752;9.168;2022-11-15T00:21:40;96685.00;;;8.83;73.15
55263;BME280;41125;48.752;9.168;2022-11-15T00:22:12;96682.81;;;8.85;73.28
55263;BME280;41125;48.752;9.168;2022-11-15T00:22:44;96681.16;;;8.89;72.99
55263;BME280;41125;48.752;9.168;2022-11-15T00:23:16;96676.25;;;8.91;72.90
55263;BME280;41125;48.752;9.168;2022-11-15T00:23:47;96677.87;;;8.92;72.72
55263;BME280;41125;48.752;9.168;2022-11-15T00:24:20;96680.06;;;8.90;72.78
55263;BME280;41125;48.752;9.168;2022-11-15T00:24:51;96680.06;;;8.90;73.06
55263;BME280;41125;48.752;9.168;2022-11-15T00:25:25;96679.25;;;8.89;72.71
55263;BME280;41125;48.752;9.168;2022-11-15T00:25:57;96676.81;;;8.88;72.98
55263;BME280;41125;48.752;9.168;2022-11-15T00:26:29;96676.03;;;8.87;72.98
55263;BME280;41125;48.752;9.168;2022-11-15T00:27:00;96670.28;;;8.94;72.40
55263;BME280;41125;48.752;9.168;2022-11-15T00:27:31;96678.34;;;8.99;72.25
55263;BME280;41125;48.752;9.168;2022-11-15T00:28:06;96678.53;;;9.02;72.15
55263;BME280;41125;48.752;9.168;2022-11-15T00:28:38;96670.72;;;9.01;72.26
55263;BME280;41125;48.752;9.168;2022-11-15T00:29:09;96673.72;;;8.99;72.12
55263;BME280;41125;48.752;9.168;2022-11-15T00:29:41;96678.84;;;9.01;71.99
55263;BME280;41125;48.752;9.168;2022-11-15T00:30:14;96679.97;;;9.00;72.05
55263;BME280;41125;48.752;9.168;2022-11-15T00:30:46;96672.13;;;8.98;72.21
55263;BME280;41125;48.752;9.168;2022-11-15T00:31:17;96671.88;;;8.95;72.07
55263;BME280;41125;48.752;9.168;2022-11-15T00:31:48;96680.00;;;8.95;72.63
55263;BME280;41125;48.752;9.168;2022-11-15T00:32:19;96672.41;;;8.97;72.26
55263;BME280;41125;48.752;9.168;2022-11-15T00:32:54;96668.09;;;8.96;72.17
55263;BME280;41125;48.752;9.168;2022-11-15T00:33:25;96667.00;;;8.97;72.19
55263;BME280;41125;48.752;9.168;2022-11-15T00:34:00;96666.91;;;9.02;72.33
55263;BME280;41125;48.752;9.168;2022-11-15T00:34:32;96672.56;;;9.05;71.62
55263;BME280;41125;48.752;9.168;2022-11-15T00:35:05;96663.88;;;9.08;71.56
55263;BME280;41125;48.752;9.168;2022-11-15T00:35:36;96661.44;;;9.07;71.31
55263;BME280;41125;48.752;9.168;2022-11-15T00:36:09;96661.16;;;9.08;71.11
55263;BME280;41125;48.752;9.168;2022-11-15T00:36:42;96663.56;;;9.10;71.40
55263;BME280;41125;48.752;9.168;2022-11-15T00:37:14;96665.47;;;9.10;71.38
55263;BME280;41125;48.752;9.168;2022-11-15T00:37:46;96664.16;;;9.07;71.64
55263;BME280;41125;48.752;9.168;2022-11-15T00:38:19;96664.16;;;9.07;71.59
55263;BME280;41125;48.752;9.168;2022-11-15T00:38:50;96663.06;;;9.08;71.45
55263;BME280;41125;48.752;9.168;2022-11-15T00:39:22;96661.38;;;9.12;71.52
55263;BME280;41125;48.752;9.168;2022-11-15T00:39:54;96665.19;;;9.11;71.35
55263;BME280;41125;48.752;9.168;2022-11-15T00:40:29;96655.47;;;9.10;71.66
55263;BME280;41125;48.752;9.168;2022-11-15T00:41:01;96662.78;;;9.10;71.71
55263;BME280;41125;48.752;9.168;2022-11-15T00:41:32;96660.59;;;9.12;71.71
55263;BME280;41125;48.752;9.168;2022-11-15T00:42:05;96662.19;;;9.13;71.48
55263;BME280;41125;48.752;9.168;2022-11-15T00:42:37;96656.56;;;9.09;71.65
55263;BME280;41125;48.752;9.168;2022-11-15T00:43:08;96662.78;;;9.10;71.17
55263;BME280;41125;48.752;9.168;2022-11-15T00:43:39;96660.63;;;9.06;71.71
55263;BME280;41125;48.752;9.168;2022-11-15T00:44:10;96659.31;;;9.04;71.58
55263;BME280;41125;48.752;9.168;2022-11-15T00:44:41;96651.47;;;9.02;71.68
55263;BME280;41125;48.752;9.168;2022-11-15T00:45:13;96660.69;;;9.01;71.67
55263;BME280;41125;48.752;9.168;2022-11-15T00:45:44;96660.13;;;9.04;71.87
55263;BME280;41125;48.752;9.168;2022-11-15T00:46:15;96656.59;;;9.04;72.25
55263;BME280;41125;48.752;9.168;2022-11-15T00:46:46;96650.91;;;9.05;71.75
55263;BME280;41125;48.752;9.168;2022-11-15T00:47:18;96652.53;;;9.06;71.50
55263;BME280;41125;48.752;9.168;2022-11-15T00:47:49;96656.31;;;9.05;71.88
55263;BME280;41125;48.752;9.168;2022-11-15T00:48:21;96658.22;;;9.05;71.95
55263;BME280;41125;48.752;9.168;2022-11-15T00:48:52;96650.62;;;9.07;71.68
55263;BME280;41125;48.752;9.168;2022-11-15T00:49:23;96650.56;;;9.12;71.31
55263;BME280;41125;48.752;9.168;2022-11-15T00:49:54;96648.88;;;9.16;71.46
55263;BME280;41125;48.752;9.168;2022-11-15T00:50:26;96650.78;;;9.16;71.21
55263;BME280;41125;48.752;9.168;2022-11-15T00:50:57;96646.19;;;9.16;71.42
55263;BME280;41125;48.752;9.168;2022-11-15T00:51:28;96653.78;;;9.14;71.03
55263;BME280;41125;48.752;9.168;2022-11-15T00:52:00;96648.37;;;9.14;71.36
55263;BME280;41125;48.752;9.168;2022-11-15T00:52:31;96649.47;;;9.13;71.14
55263;BME280;41125;48.752;9.168;2022-11-15T00:53:02;96645.16;;;9.12;71.54
55263;BME280;41125;48.752;9.168;2022-11-15T00:53:33;96648.94;;;9.11;71.17
55263;BME280;41125;48.752;9.168;2022-11-15T00:54:05;96654.37;;;9.11;71.69
55263;BME280;41125;48.752;9.168;2022-11-15T00:54:36;96647.91;;;9.07;71.41
55263;BME280;41125;48.752;9.168;2022-11-15T00:55:13;96648.50;;;9.04;71.63
55263;BME280;41125;48.752;9.168;2022-11-15T00:55:46;96649.28;;;9.04;71.63
55263;BME280;41125;48.752;9.168;2022-11-15T00:56:17;96644.97;;;9.03;71.53
55263;BME280;41125;48.752;9.168;2022-11-15T00:56:48;96648.72;;;9.07;71.35
55263;BME280;41125;48.752;9.168;2022-11-15T00:57:19;96645.97;;;9.13;71.22
55263;BME280;41125;48.752;9.168;2022-11-15T00:57:51;96647.28;;;9.15;71.03
55263;BME280;41125;48.752;9.168;2022-11-15T00:58:22;96641.81;;;9.20;70.49
55263;BME280;41125;48.752;9.168;2022-11-15T00:58:53;96645.59;;;9.19;70.37
55263;BME280;41125;48.752;9.168;2022-11-15T00:59:24;96642.91;;;9.19;70.44
55263;BME280;41125;48.752;9.168;2022-11-15T00:59:56;96638.28;;;9.20;70.39
55263;BME280;41125;48.752;9.168;2022-11-15T01:00:27;96645.59;;;9.19;70.50
55263;BME280;41125;48.752;9.168;2022-11-15T01:01:10;96639.63;;;9.22;70.48
55263;BME280;41125;48.752;9.168;2022-11-15T01:01:43;96639.63;;;9.22;70.46
55263;BME280;41125;48.752;9.168;2022-11-15T01:02:14;96639.09;;;9.20;70.50
55263;BME280;41125;48.752;9.168;2022-11-15T01:02:45;96636.69;;;9.19;70.79
55263;BME280;41125;48.752;9.168;2022-11-15T01:03:17;96633.16;;;9.18;70.80
55263;BME280;41125;48.752;9.168;2022-11-15T01:03:48;96637.50;;;9.19;70.85
55263;BME280;41125;48.752;9.168;2022-11-15T01:04:19;96638.00;;;9.21;70.32
55263;BME280;41125;48.752;9.168;2022-11-15T01:04:51;96628.78;;;9.22;70.56
55263;BME280;41125;48.752;9.168;2022-11-15T01:05:22;96632.87;;;9.20;70.50
55263;BME280;41125;48.752;9.168;2022-11-15T01:05:56;96635.59;;;9.20;70.77
55263;BME280;41125;48.752;9.168;2022-11-15T01:06:29;96641.81;;;9.20;70.87
55263;BME280;41125;48.752;9.168;2022-11-15T01:07:01;96633.97;;;9.19;70.86
55263;BME280;41125;48.752;9.168;2022-11-15T01:07:32;96635.81;;;9.23;70.19
55263;BME280;41125;48.752;9.168;2022-11-15T01:08:04;96636.09;;;9.22;70.56
55263;BME280;41125;48.752;9.168;2022-11-15T01:08:36;96638.00;;;9.21;70.76
55263;BME280;41125;48.752;9.168;2022-11-15T01:09:08;96628.78;;;9.22;70.53
55263;BME280;41125;48.752;9.168;2022-11-15T01:09:40;96629.38;;;9.19;70.40
55263;BME280;41125;48.752;9.168;2022-11-15T01:10:11;96625.56;;;9.20;70.59
55263;BME280;41125;48.752;9.168;2022-11-15T01:10:43;96634.78;;;9.19;70.79
55263;BME280;41125;48.752;9.168;2022-11-15T01:11:14;96628.28;;;9.20;70.60
55263;BME280;41125;48.752;9.168;2022-11-15T01:11:45;96626.66;;;9.19;70.29
55263;BME280;41125;48.752;9.168;2022-11-15T01:12:16;96626.66;;;9.19;70.15
55263;BME280;41125;48.752;9.168;2022-11-15T01:12:49;96627.19;;;9.21;70.13
55263;BME280;41125;48.752;9.168;2022-11-15T01:13:20;96621.69;;;9.26;70.25
55263;BME280;41125;48.752;9.168;2022-11-15T01:13:52;96620.59;;;9.27;70.17
55263;BME280;41125;48.752;9.168;2022-11-15T01:14:23;96620.59;;;9.27;70.36
55263;BME280;41125;48.752;9.168;2022-11-15T01:14:54;96623.91;;;9.24;70.01
55263;BME280;41125;48.752;9.168;2022-11-15T01:15:26;96626.59;;;9.24;70.25
55263;BME280;41125;48.752;9.168;2022-11-15T01:15:57;96625.56;;;9.20;70.46
55263;BME280;41125;48.752;9.168;2022-11-15T01:16:29;96625.03;;;9.18;70.43
55263;BME280;41125;48.752;9.168;2022-11-15T01:17:00;96622.63;;;9.17;70.33
55263;BME280;41125;48.752;9.168;2022-11-15T01:17:31;96626.72;;;9.14;70.64
55263;BME280;41125;48.752;9.168;2022-11-15T01:18:03;96625.09;;;9.13;70.87
55263;BME280;41125;48.752;9.168;2022-11-15T01:18:35;96626.19;;;9.12;70.71
55263;BME280;41125;48.752;9.168;2022-11-15T01:19:06;96629.19;;;9.11;70.39
55263;BME280;41125;48.752;9.168;2022-11-15T01:19:41;96623.50;;;9.12;70.55
55263;BME280;41125;48.752;9.168;2022-11-15T01:20:12;96631.09;;;9.10;70.89
55263;BME280;41125;48.752;9.168;2022-11-15T01:20:43;96627.88;;;9.08;70.99
55263;BME280;41125;48.752;9.168;2022-11-15T01:21:18;96631.38;;;9.08;70.75
55263;BME280;41125;48.752;9.168;2022-11-15T01:21:50;96634.38;;;9.07;71.38
55263;BME280;41125;48.752;9.168;2022-11-15T01:22:21;96628.44;;;9.05;71.02
55263;BME280;41125;48.752;9.168;2022-11-15T01:22:53;96625.75;;;9.05;70.66
55263;BME280;41125;48.752;9.168;2022-11-15T01:23:25;96624.41;;;9.02;70.99
55263;BME280;41125;48.752;9.168;2022-11-15T01:23:56;96626.63;;;9.00;71.35
55263;BME280;41125;48.752;9.168;2022-11-15T01:24:28;96625.84;;;9.00;71.56
55263;BME280;41125;48.752;9.168;2022-11-15T01:24:59;96635.03;;;8.99;71.62
55263;BME280;41125;48.752;9.168;2022-11-15T01:25:30;96629.91;;;8.97;71.42
55263;BME280;41125;48.752;9.168;2022-11-15T01:26:04;96633.44;;;8.98;71.52
55263;BME280;41125;48.752;9.168;2022-11-15T01:26:35;96625.59;;;8.96;71.28
55263;BME280;41125;48.752;9.168;2022-11-15T01:27:06;96631.28;;;8.95;71.55
55263;BME280;41125;48.752;9.168;2022-11-15T01:27:39;96628.59;;;8.95;71.54
55263;BME280;41125;48.752;9.168;2022-11-15T01:28:10;96621.06;;;8.92;71.70
55263;BME280;41125;48.752;9.168;2022-11-15T01:28:43;96624.56;;;8.92;71.56
55263;BME280;41125;48.752;9.168;2022-11-15T01:29:14;96631.06;;;8.91;71.48
55263;BME280;41125;48.752;9.168;2022-11-15T01:29:45;96629.75;;;8.89;71.56
55263;BME280;41125;48.752;9.168;2022-11-15T01:30:18;96631.13;;;8.86;71.79
55263;BME280;41125;48.752;9.168;2022-11-15T01:30:50;96628.69;;;8.85;72.14
55263;BME280;41125;48.752;9.168;2022-11-15T01:31:21;96621.69;;;8.84;71.98
55263;BME280;41125;48.752;9.168;2022-11-15T01:31:53;96625.72;;;8.86;71.74
55263;BME280;41125;48.752;9.168;2022-11-15T01:32:25;96620.28;;;8.86;71.93
55263;BME280;41125;48.752;9.168;2022-11-15T01:32:56;96623.81;;;8.87;72.07
55263;BME280;41125;48.752;9.168;2022-11-15T01:33:28;96622.72;;;8.88;71.88
55263;BME280;41125;48.752;9.168;2022-11-15T01:34:00;96633.03;;;8.86;72.00
55263;BME280;41125;48.752;9.168;2022-11-15T01:34:31;96627.66;;;8.81;72.27
55263;BME280;41125;48.752;9.168;2022-11-15T01:35:03;96632.03;;;8.77;72.22
55263;BME280;41125;48.752;9.168;2022-11-15T01:35:38;96635.31;;;8.73;72.23
55263;BME280;41125;48.752;9.168;2022-11-15T01:36:16;96635.62;;;8.67;73.15
55263;BME280;41125;48.752;9.168;2022-11-15T01:36:48;96628.12;;;8.64;72.91
55263;BME280;41125;48.752;9.168;2022-11-15T01:37:21;96627.59;;;8.62;73.05
55263;BME280;41125;48.752;9.168;2022-11-15T01:37:52;96634.91;;;8.61;73.41
55263;BME280;41125;48.752;9.168;2022-11-15T01:38:23;96628.19;;;8.59;73.33
55263;BME280;41125;48.752;9.168;2022-11-15T01:38:56;96628.41;;;8.62;73.49
55263;BME280;41125;48.752;9.168;2022-11-15T01:39:28;96623.53;;;8.64;73.27
55263;BME280;41125;48.752;9.168;2022-11-15T01:39:59;96624.91;;;8.62;73.32
55263;BME280;41125;48.752;9.168;2022-11-15T01:40:34;96627.84;;;8.65;72.98
55263;BME280;41125;48.752;9.168;2022-11-15T01:41:06;96627.84;;;8.65;73.45
55263;BME280;41125;48.752;9.168;2022-11-15T01:41:39;96631.13;;;8.62;73.16
55263;BME280;41125;48.752;9.168;2022-11-15T01:42:13;96626.81;;;8.61;73.35
55263;BME280;41125;48.752;9.168;2022-11-15T01:42:44;96619.50;;;8.62;73.30
55263;BME280;41125;48.752;9.168;2022-11-15T01:43:30;96628.94;;;8.64;73.41
55263;BME280;41125;48.752;9.168;2022-11-15T01:45:20;96621.97;;;8.58;73.49
55263;BME280;41125;48.752;9.168;2022-11-15T01:46:01;96623.06;;;8.57;73.49
55263;BME280;41125;48.752;9.168;2022-11-15T01:46:36;96625.22;;;8.55;73.96
55263;BME280;41125;48.752;9.168;2022-11-15T01:48:11;96630.69;;;8.50;73.81
55263;BME280;41125;48.752;9.168;2022-11-15T01:48:42;96618.53;;;8.48;73.99
55263;BME280;41125;48.752;9.168;2022-11-15T01:49:20;96622.91;;;8.44;74.25
55263;BME280;41125;48.752;9.168;2022-11-15T01:50:02;96627.00;;;8.41;74.37
55263;BME280;41125;48.752;9.168;2022-11-15T01:50:35;96626.47;;;8.39;74.48
55263;BME280;41125;48.752;9.168;2022-11-15T01:51:09;96624.84;;;8.38;74.67
55263;BME280;41125;48.752;9.168;2022-11-15T01:51:42;96626.47;;;8.39;74.31
55263;BME280;41125;48.752;9.168;2022-11-15T01:52:18;96627.03;;;8.36;74.66
55263;BME280;41125;48.752;9.168;2022-11-15T01:52:50;96626.75;;;8.37;74.76
55263;BME280;41125;48.752;9.168;2022-11-15T01:53:23;96628.66;;;8.37;74.47
55263;BME280;41125;48.752;9.168;2022-11-15T01:53:58;96624.59;;;8.34;74.63
55263;BME280;41125;48.752;9.168;2022-11-15T01:54:31;96618.97;;;8.31;75.04
55263;BME280;41125;48.752;9.168;2022-11-15T01:55:20;96615.97;;;8.32;75.13
55263;BME280;41125;48.752;9.168;2022-11-15T01:55:53;96618.97;;;8.31;74.74
55263;BME280;41125;48.752;9.168;2022-11-15T01:56:27;96618.97;;;8.31;74.68
55263;BME280;41125;48.752;9.168;2022-11-15T01:57:04;96617.34;;;8.30;74.88
55263;BME280;41125;48.752;9.168;2022-11-15T01:57:37;96618.72;;;8.27;74.79
55263;BME280;41125;48.752;9.168;2022-11-15T01:58:10;96621.72;;;8.26;75.09
55263;BME280;41125;48.752;9.168;2022-11-15T01:58:42;96618.47;;;8.24;75.37
55263;BME280;41125;48.752;9.168;2022-11-15T01:59:14;96616.63;;;8.19;75.11
55263;BME280;41125;48.752;9.168;2022-11-15T01:59:47;96618.00;;;8.17;75.31
55263;BME280;41125;48.752;9.168;2022-11-15T02:00:18;96619.38;;;8.14;75.44
55263;BME280;41125;48.752;9.168;2022-11-15T02:00:50;96620.75;;;8.12;75.60
55263;BME280;41125;48.752;9.168;2022-11-15T02:01:24;96617.22;;;8.11;75.84
55263;BME280;41125;48.752;9.168;2022-11-15T02:01:57;96614.00;;;8.09;75.91
55263;BME280;41125;48.752;9.168;2022-11-15T02:02:28;96614.28;;;8.07;75.59
55263;BME280;41125;48.752;9.168;2022-11-15T02:02:59;96618.06;;;8.06;76.02
55263;BME280;41125;48.752;9.168;2022-11-15T02:03:37;96618.06;;;8.06;76.22
55263;BME280;41125;48.752;9.168;2022-11-15T02:04:22;96617.28;;;8.06;75.81
55263;BME280;41125;48.752;9.168;2022-11-15T02:04:55;96612.16;;;8.04;75.81
55263;BME280;41125;48.752;9.168;2022-11-15T02:05:26;96617.56;;;8.04;76.16
55263;BME280;41125;48.752;9.168;2022-11-15T02:05:58;96618.63;;;8.03;75.93
55263;BME280;41125;48.752;9.168;2022-11-15T02:06:30;96611.63;;;8.02;76.32
55263;BME280;41125;48.752;9.168;2022-11-15T02:07:03;96610.00;;;8.01;75.91
55263;BME280;41125;48.752;9.168;2022-11-15T02:07:36;96620.81;;;8.01;76.24
55263;BME280;41125;48.752;9.168;2022-11-15T02:08:09;96617.59;;;7.99;76.19
55263;BME280;41125;48.752;9.168;2022-11-15T02:08:51;96612.19;;;7.99;76.48
55263;BME280;41125;48.752;9.168;2022-11-15T02:09:22;96612.19;;;7.99;76.42
55263;BME280;41125;48.752;9.168;2022-11-15T02:09:54;96606.78;;;7.99;76.69
55263;BME280;41125;48.752;9.168;2022-11-15T02:10:27;96610.56;;;7.98;76.51
55263;BME280;41125;48.752;9.168;2022-11-15T02:10:58;96607.66;;;7.95;76.67
55263;BME280;41125;48.752;9.168;2022-11-15T02:11:30;96609.56;;;7.94;76.58
55263;BME280;41125;48.752;9.168;2022-11-15T02:12:06;96604.44;;;7.93;76.99
55263;BME280;41125;48.752;9.168;2022-11-15T02:12:40;96606.31;;;7.92;76.92
55263;BME280;41125;48.752;9.168;2022-11-15T02:13:12;96604.72;;;7.91;77.00
55263;BME280;41125;48.752;9.168;2022-11-15T02:13:44;96606.59;;;7.91;77.07
55263;BME280;41125;48.752;9.168;2022-11-15T02:14:18;96607.41;;;7.91;77.18
55263;BME280;41125;48.752;9.168;2022-11-15T02:14:53;96606.88;;;7.89;77.15
55263;BME280;41125;48.752;9.168;2022-11-15T02:15:29;96606.09;;;7.89;77.10
55263;BME280;41125;48.752;9.168;2022-11-15T02:16:39;96609.59;;;7.89;77.00
55263;BME280;41125;48.752;9.168;2022-11-15T02:20:58;96593.97;;;7.81;77.57
55263;BME280;41125;48.752;9.168;2022-11-15T02:21:46;96600.19;;;7.82;77.58
55263;BME280;41125;48.752;9.168;2022-11-15T02:24:33;96595.59;;;7.82;77.51
55263;BME280;41125;48.752;9.168;2022-11-15T02:26:48;96593.69;;;7.83;77.21
55263;BME280;41125;48.752;9.168;2022-11-15T02:28:39;96585.87;;;7.81;77.47
55263;BME280;41125;48.752;9.168;2022-11-15T02:34:10;96590.25;;;7.72;77.93
55263;BME280;41125;48.752;9.168;2022-11-15T02:41:55;96578.34;;;7.78;77.66
55263;BME280;41125;48.752;9.168;2022-11-15T02:42:35;96579.94;;;7.79;77.37
55263;BME280;41125;48.752;9.168;2022-11-15T02:43:33;96578.34;;;7.78;77.51
55263;BME280;41125;48.752;9.168;2022-11-15T02:44:32;96576.16;;;7.80;77.12
55263;BME280;41125;48.752;9.168;2022-11-15T02:45:08;96581.56;;;7.80;77.63
55263;BME280;41125;48.752;9.168;2022-11-15T02:45:49;96574.25;;;7.81;77.38
55263;BME280;41125;48.752;9.168;2022-11-15T02:46:51;96573.47;;;7.80;77.57
55263;BME280;41125;48.752;9.168;2022-11-15T02:47:44;96572.94;;;7.78;77.22
55263;BME280;41125;48.752;9.168;2022-11-15T02:48:18;96575.62;;;7.78;77.37
55263;BME280;41125;48.752;9.168;2022-11-15T02:48:50;96567.53;;;7.78;77.57
55263;BME280;41125;48.752;9.168;2022-11-15T02:49:24;96568.88;;;7.81;77.57
55263;BME280;41125;48.752;9.168;2022-11-15T02:49:59;96564.56;;;7.80;77.43
55263;BME280;41125;48.752;9.168;2022-11-15T02:50:32;96562.94;;;7.79;77.53
55263;BME280;41125;48.752;9.168;2022-11-15T02:51:04;96564.56;;;7.80;77.44
55263;BME280;41125;48.752;9.168;2022-11-15T02:51:36;96560.75;;;7.81;77.50
55263;BME280;41125;48.752;9.168;2022-11-15T02:52:09;96562.94;;;7.79;77.79
55263;BME280;41125;48.752;9.168;2022-11-15T02:52:40;96561.31;;;7.78;77.89
55263;BME280;41125;48.752;9.168;2022-11-15T02:53:14;96568.63;;;7.77;77.67
55263;BME280;41125;48.752;9.168;2022-11-15T02:53:46;96569.72;;;7.76;77.67
55263;BME280;41125;48.752;9.168;2022-11-15T02:54:24;96561.88;;;7.74;77.76
55263;BME280;41125;48.752;9.168;2022-11-15T02:54:59;96569.19;;;7.74;78.17
55263;BME280;41125;48.752;9.168;2022-11-15T02:55:37;96568.38;;;7.73;78.38
55263;BME280;41125;48.752;9.168;2022-11-15T02:56:11;96564.88;;;7.73;78.12
55263;BME280;41125;48.752;9.168;2022-11-15T02:56:45;96564.88;;;7.73;78.46
55263;BME280;41125;48.752;9.168;2022-11-15T02:57:19;96563.25;;;7.72;78.42
55263;BME280;41125;48.752;9.168;2022-11-15T03:00:16;96557.81;;;7.77;78.22
55263;BME280;41125;48.752;9.168;2022-11-15T03:01:24;96555.13;;;7.77;78.21
55263;BME280;41125;48.752;9.168;2022-11-15T03:02:28;96564.84;;;7.78;78.17
55263;BME280;41125;48.752;9.168;2022-11-15T03:03:37;96556.72;;;7.78;78.12
55263;BME280;41125;48.752;9.168;2022-11-15T03:04:36;96561.03;;;7.79;77.90
55263;BME280;41125;48.752;9.168;2022-11-15T03:05:25;96554.84;;;7.79;78.02
55263;BME280;41125;48.752;9.168;2022-11-15T03:07:14;96552.38;;;7.82;77.79
55263;BME280;41125;48.752;9.168;2022-11-15T03:10:29;96551.28;;;7.83;77.35
55263;BME280;41125;48.752;9.168;2022-11-15T03:11:14;96556.16;;;7.81;77.97
55263;BME280;41125;48.752;9.168;2022-11-15T03:11:50;96552.94;;;7.79;77.65
55263;BME280;41125;48.752;9.168;2022-11-15T03:12:43;96554.03;;;7.78;77.74
55263;BME280;41125;48.752;9.168;2022-11-15T03:13:27;96552.41;;;7.77;77.90
55263;BME280;41125;48.752;9.168;2022-11-15T03:14:37;96556.19;;;7.76;77.81
55263;BME280;41125;48.752;9.168;2022-11-15T03:15:18;96551.88;;;7.75;78.26
55263;BME280;41125;48.752;9.168;2022-11-15T03:16:16;96544.88;;;7.74;77.88
55263;BME280;41125;48.752;9.168;2022-11-15T03:17:26;96552.69;;;7.76;77.83
55263;BME280;41125;48.752;9.168;2022-11-15T03:18:02;96540.28;;;7.74;77.66
55263;BME280;41125;48.752;9.168;2022-11-15T03:18:41;96544.88;;;7.74;78.16
55263;BME280;41125;48.752;9.168;2022-11-15T03:20:16;96541.09;;;7.75;77.83
55263;BME280;41125;48.752;9.168;2022-11-15T03:20:50;96541.91;;;7.76;77.72
55263;BME280;41125;48.752;9.168;2022-11-15T03:21:23;96546.22;;;7.77;78.02
55263;BME280;41125;48.752;9.168;2022-11-15T03:21:56;96543.78;;;7.75;78.06
55263;BME280;41125;48.752;9.168;2022-11-15T03:22:35;96545.41;;;7.76;77.92
55263;BME280;41125;48.752;9.168;2022-11-15T03:23:09;96539.19;;;7.76;77.68
55263;BME280;41125;48.752;9.168;2022-11-15T03:23:43;96541.91;;;7.76;77.83
55263;BME280;41125;48.752;9.168;2022-11-15T03:24:18;96540.28;;;7.74;77.75
55263;BME280;41125;48.752;9.168;2022-11-15T03:24:58;96544.88;;;7.74;78.04
55263;BME280;41125;48.752;9.168;2022-11-15T03:25:32;96544.88;;;7.74;78.10
55263;BME280;41125;48.752;9.168;2022-11-15T03:26:07;96541.09;;;7.75;77.93
55263;BME280;41125;48.752;9.168;2022-11-15T03:26:41;96541.09;;;7.75;78.24
55263;BME280;41125;48.752;9.168;2022-11-15T03:27:21;96546.50;;;7.75;78.05
55263;BME280;41125;48.752;9.168;2022-11-15T03:27:56;96542.97;;;7.74;77.77
55263;BME280;41125;48.752;9.168;2022-11-15T03:28:34;96537.88;;;7.73;78.30
55263;BME280;41125;48.752;9.168;2022-11-15T03:29:13;96539.47;;;7.74;78.29
55263;BME280;41125;48.752;9.168;2022-11-15T03:29:52;96534.06;;;7.74;78.07
55263;BME280;41125;48.752;9.168;2022-11-15T03:30:27;96540.28;;;7.74;78.12
55263;BME280;41125;48.752;9.168;2022-11-15T03:31:01;96539.19;;;7.76;78.07
55263;BME280;41125;48.752;9.168;2022-11-15T03:32:00;96547.00;;;7.77;77.75
55263;BME280;41125;48.752;9.168;2022-11-15T03:32:47;96542.69;;;7.76;77.67
55263;BME280;41125;48.752;9.168;2022-11-15T03:33:21;96541.09;;;7.75;77.90
55263;BME280;41125;48.752;9.168;2022-11-15T03:33:55;96541.91;;;7.76;77.77
55263;BME280;41125;48.752;9.168;2022-11-15T03:34:35;96544.88;;;7.74;77.86
55263;BME280;41125;48.752;9.168;2022-11-15T03:35:14;96541.09;;;7.75;77.56
55263;BME280;41125;48.752;9.168;2022-11-15T03:35:47;96538.91;;;7.77;77.45